Terminal Aerodrome Forecast
Issued by NWS Louisville, KY

Home | Current Version | Previous Version | Text Only | Print | Product List | Glossary On
Versions: 1 2 3 4 5 6 7 8 9 10 11 12 13
815
FTUS43 KLMK 250526
TAFLEX
TAF
KLEX 250526Z 2506/2606 17005KT P6SM FEW090 BKN250
     FM251500 20010KT P6SM VCSH BKN050
     FM252200 17007KT P6SM SCT050 BKN250=

USA.gov is the U.S. government's official web portal to all federal, state and local government web resources and services.